sensor_id;sensor_type;location;lat;lon;timestamp;temperature;humidity
3626;DHT22;1827;50.534;8.316;2023-04-25T00:00:28;8.00;99.90
3626;DHT22;1827;50.534;8.316;2023-04-25T00:02:54;7.90;94.60
3626;DHT22;1827;50.534;8.316;2023-04-25T00:05:25;7.90;73.50
3626;DHT22;1827;50.534;8.316;2023-04-25T00:07:51;7.90;38.40
3626;DHT22;1827;50.534;8.316;2023-04-25T00:10:17;7.90;21.80
3626;DHT22;1827;50.534;8.316;2023-04-25T00:12:43;7.90;1.90
3626;DHT22;1827;50.534;8.316;2023-04-25T00:15:09;7.90;1.00
3626;DHT22;1827;50.534;8.316;2023-04-25T00:17:35;7.90;1.00
3626;DHT22;1827;50.534;8.316;2023-04-25T00:20:01;7.90;1.00
3626;DHT22;1827;50.534;8.316;2023-04-25T00:22:30;7.80;1.00
3626;DHT22;1827;50.534;8.316;2023-04-25T00:24:56;7.80;1.00
3626;DHT22;1827;50.534;8.316;2023-04-25T00:27:26;7.70;1.00
3626;DHT22;1827;50.534;8.316;2023-04-25T00:29:52;7.70;1.00
3626;DHT22;1827;50.534;8.316;2023-04-25T00:32:17;7.80;1.00
3626;DHT22;1827;50.534;8.316;2023-04-25T00:34:44;7.70;1.00
3626;DHT22;1827;50.534;8.316;2023-04-25T00:37:09;7.70;1.00
3626;DHT22;1827;50.534;8.316;2023-04-25T00:39:35;7.60;1.00
3626;DHT22;1827;50.534;8.316;2023-04-25T00:42:02;7.60;1.00
3626;DHT22;1827;50.534;8.316;2023-04-25T00:44:29;7.50;1.00
3626;DHT22;1827;50.534;8.316;2023-04-25T00:46:56;7.40;1.00
3626;DHT22;1827;50.534;8.316;2023-04-25T00:49:21;7.40;1.00
3626;DHT22;1827;50.534;8.316;2023-04-25T00:51:47;7.30;1.00
3626;DHT22;1827;50.534;8.316;2023-04-25T00:54:14;7.30;1.00
3626;DHT22;1827;50.534;8.316;2023-04-25T00:56:41;7.30;1.00
3626;DHT22;1827;50.534;8.316;2023-04-25T00:59:07;7.30;1.00
3626;DHT22;1827;50.534;8.316;2023-04-25T01:01:34;7.20;1.00
3626;DHT22;1827;50.534;8.316;2023-04-25T01:04:01;7.20;1.00
3626;DHT22;1827;50.534;8.316;2023-04-25T01:06:27;7.20;1.00
3626;DHT22;1827;50.534;8.316;2023-04-25T01:08:53;7.10;1.00
3626;DHT22;1827;50.534;8.316;2023-04-25T01:11:19;7.00;1.00
3626;DHT22;1827;50.534;8.316;2023-04-25T01:13:45;7.10;1.00
3626;DHT22;1827;50.534;8.316;2023-04-25T01:16:11;7.10;1.00
3626;DHT22;1827;50.534;8.316;2023-04-25T01:18:39;7.00;1.00
3626;DHT22;1827;50.534;8.316;2023-04-25T01:21:09;6.90;1.00
3626;DHT22;1827;50.534;8.316;2023-04-25T01:23:37;6.90;1.00
3626;DHT22;1827;50.534;8.316;2023-04-25T01:26:04;6.80;1.00
3626;DHT22;1827;50.534;8.316;2023-04-25T01:28:30;6.80;1.00
3626;DHT22;1827;50.534;8.316;2023-04-25T01:30:57;6.90;1.00
3626;DHT22;1827;50.534;8.316;2023-04-25T01:33:23;6.80;1.00
3626;DHT22;1827;50.534;8.316;2023-04-25T01:35:48;6.70;1.00
3626;DHT22;1827;50.534;8.316;2023-04-25T01:38:14;6.60;1.00
3626;DHT22;1827;50.534;8.316;2023-04-25T01:40:40;6.60;1.00
3626;DHT22;1827;50.534;8.316;2023-04-25T01:43:08;6.50;1.00
3626;DHT22;1827;50.534;8.316;2023-04-25T01:45:37;6.50;1.00
3626;DHT22;1827;50.534;8.316;2023-04-25T01:48:12;6.50;1.00
3626;DHT22;1827;50.534;8.316;2023-04-25T01:50:39;6.50;1.00
3626;DHT22;1827;50.534;8.316;2023-04-25T01:53:05;6.50;1.00
3626;DHT22;1827;50.534;8.316;2023-04-25T01:55:31;6.50;1.00
3626;DHT22;1827;50.534;8.316;2023-04-25T01:58:04;6.40;1.00
3626;DHT22;1827;50.534;8.316;2023-04-25T02:01:00;6.50;1.00
3626;DHT22;1827;50.534;8.316;2023-04-25T02:03:31;6.50;1.00
3626;DHT22;1827;50.534;8.316;2023-04-25T02:05:58;6.50;1.00
3626;DHT22;1827;50.534;8.316;2023-04-25T02:08:24;6.60;1.00
3626;DHT22;1827;50.534;8.316;2023-04-25T02:10:54;6.50;1.00
3626;DHT22;1827;50.534;8.316;2023-04-25T02:13:19;6.40;1.00
3626;DHT22;1827;50.534;8.316;2023-04-25T02:16:00;6.40;1.00
3626;DHT22;1827;50.534;8.316;2023-04-25T02:18:26;6.30;1.00
3626;DHT22;1827;50.534;8.316;2023-04-25T02:20:52;6.20;1.00
3626;DHT22;1827;50.534;8.316;2023-04-25T02:23:17;6.10;1.00
3626;DHT22;1827;50.534;8.316;2023-04-25T02:25:44;6.10;1.00
3626;DHT22;1827;50.534;8.316;2023-04-25T02:28:10;6.00;1.00
3626;DHT22;1827;50.534;8.316;2023-04-25T02:30:37;5.90;1.00
3626;DHT22;1827;50.534;8.316;2023-04-25T02:33:04;5.90;1.00
3626;DHT22;1827;50.534;8.316;2023-04-25T02:35:30;5.80;1.00
3626;DHT22;1827;50.534;8.316;2023-04-25T02:37:55;5.70;1.00
3626;DHT22;1827;50.534;8.316;2023-04-25T02:40:21;5.60;1.00
3626;DHT22;1827;50.534;8.316;2023-04-25T02:42:47;5.60;1.00
3626;DHT22;1827;50.534;8.316;2023-04-25T02:45:13;5.60;1.00
3626;DHT22;1827;50.534;8.316;2023-04-25T02:47:39;5.50;1.00
3626;DHT22;1827;50.534;8.316;2023-04-25T02:50:05;5.40;1.00
3626;DHT22;1827;50.534;8.316;2023-04-25T02:52:31;5.30;1.00
3626;DHT22;1827;50.534;8.316;2023-04-25T02:55:06;5.20;1.00
3626;DHT22;1827;50.534;8.316;2023-04-25T02:57:33;5.10;1.00
3626;DHT22;1827;50.534;8.316;2023-04-25T02:59:59;5.00;1.00
3626;DHT22;1827;50.534;8.316;2023-04-25T03:02:25;4.90;1.00
3626;DHT22;1827;50.534;8.316;2023-04-25T03:04:51;4.90;1.00
3626;DHT22;1827;50.534;8.316;2023-04-25T03:07:17;4.90;1.00
3626;DHT22;1827;50.534;8.316;2023-04-25T03:09:43;4.90;1.00
3626;DHT22;1827;50.534;8.316;2023-04-25T03:12:08;5.00;1.00
3626;DHT22;1827;50.534;8.316;2023-04-25T03:14:34;4.90;1.00
3626;DHT22;1827;50.534;8.316;2023-04-25T03:17:00;4.90;1.00
3626;DHT22;1827;50.534;8.316;2023-04-25T03:19:26;4.90;1.00
3626;DHT22;1827;50.534;8.316;2023-04-25T03:21:51;4.90;1.00
3626;DHT22;1827;50.534;8.316;2023-04-25T03:24:19;4.80;1.00
3626;DHT22;1827;50.534;8.316;2023-04-25T03:26:45;4.80;1.00
3626;DHT22;1827;50.534;8.316;2023-04-25T03:29:10;4.80;1.00
3626;DHT22;1827;50.534;8.316;2023-04-25T03:31:38;4.80;1.00
3626;DHT22;1827;50.534;8.316;2023-04-25T03:34:04;4.80;1.00
3626;DHT22;1827;50.534;8.316;2023-04-25T03:36:30;4.70;1.00
3626;DHT22;1827;50.534;8.316;2023-04-25T03:38:56;4.70;1.00
3626;DHT22;1827;50.534;8.316;2023-04-25T03:41:21;4.70;1.00
3626;DHT22;1827;50.534;8.316;2023-04-25T03:43:54;4.60;1.00
3626;DHT22;1827;50.534;8.316;2023-04-25T03:46:20;4.70;1.00
3626;DHT22;1827;50.534;8.316;2023-04-25T03:48:47;4.70;1.00
3626;DHT22;1827;50.534;8.316;2023-04-25T03:51:19;4.70;1.00
3626;DHT22;1827;50.534;8.316;2023-04-25T03:53:44;4.80;1.00
3626;DHT22;1827;50.534;8.316;2023-04-25T03:56:29;4.80;1.00
3626;DHT22;1827;50.534;8.316;2023-04-25T03:59:04;4.70;1.00
3626;DHT22;1827;50.534;8.316;2023-04-25T04:01:31;4.80;1.00
3626;DHT22;1827;50.534;8.316;2023-04-25T04:03:57;4.70;1.00
3626;DHT22;1827;50.534;8.316;2023-04-25T04:06:23;4.70;1.00
3626;DHT22;1827;50.534;8.316;2023-04-25T04:08:55;4.80;1.00
3626;DHT22;1827;50.534;8.316;2023-04-25T04:11:23;4.80;1.00
3626;DHT22;1827;50.534;8.316;2023-04-25T04:13:48;4.70;1.00
3626;DHT22;1827;50.534;8.316;2023-04-25T04:16:14;4.60;1.00
3626;DHT22;1827;50.534;8.316;2023-04-25T04:18:40;4.60;1.00
3626;DHT22;1827;50.534;8.316;2023-04-25T04:21:06;4.50;1.00
3626;DHT22;1827;50.534;8.316;2023-04-25T04:23:34;4.40;1.00
3626;DHT22;1827;50.534;8.316;2023-04-25T04:26:00;4.40;1.00
3626;DHT22;1827;50.534;8.316;2023-04-25T04:28:36;4.40;1.00
3626;DHT22;1827;50.534;8.316;2023-04-25T04:31:16;4.30;1.00
3626;DHT22;1827;50.534;8.316;2023-04-25T04:33:45;4.30;1.00
3626;DHT22;1827;50.534;8.316;2023-04-25T04:36:13;4.30;1.00
3626;DHT22;1827;50.534;8.316;2023-04-25T04:38:40;4.40;1.00
3626;DHT22;1827;50.534;8.316;2023-04-25T04:41:07;4.40;1.00
3626;DHT22;1827;50.534;8.316;2023-04-25T04:44:00;4.40;1.00
3626;DHT22;1827;50.534;8.316;2023-04-25T04:46:49;4.50;1.00
3626;DHT22;1827;50.534;8.316;2023-04-25T04:49:31;4.60;1.00
3626;DHT22;1827;50.534;8.316;2023-04-25T04:52:15;4.60;1.00
3626;DHT22;1827;50.534;8.316;2023-04-25T04:55:01;4.60;1.00
3626;DHT22;1827;50.534;8.316;2023-04-25T04:57:39;4.60;1.00
3626;DHT22;1827;50.534;8.316;2023-04-25T05:00:11;4.70;1.00
3626;DHT22;1827;50.534;8.316;2023-04-25T05:03:12;4.80;1.00
3626;DHT22;1827;50.534;8.316;2023-04-25T05:06:02;4.80;1.00
3626;DHT22;1827;50.534;8.316;2023-04-25T05:09:01;4.80;1.00
3626;DHT22;1827;50.534;8.316;2023-04-25T05:11:47;4.70;1.00
3626;DHT22;1827;50.534;8.316;2023-04-25T05:14:25;4.80;1.00
3626;DHT22;1827;50.534;8.316;2023-04-25T05:17:05;4.70;1.00
3626;DHT22;1827;50.534;8.316;2023-04-25T05:19:59;4.80;1.00
3626;DHT22;1827;50.534;8.316;2023-04-25T05:22:47;5.00;1.00
3626;DHT22;1827;50.534;8.316;2023-04-25T05:25:33;5.10;1.00
3626;DHT22;1827;50.534;8.316;2023-04-25T05:28:05;5.30;1.00
3626;DHT22;1827;50.534;8.316;2023-04-25T05:30:54;5.50;1.00
3626;DHT22;1827;50.534;8.316;2023-04-25T05:33:26;5.70;1.00
3626;DHT22;1827;50.534;8.316;2023-04-25T05:35:52;6.00;1.00
3626;DHT22;1827;50.534;8.316;2023-04-25T05:38:18;6.10;1.00
3626;DHT22;1827;50.534;8.316;2023-04-25T05:41:02;6.10;1.00
3626;DHT22;1827;50.534;8.316;2023-04-25T05:43:51;6.30;1.00
3626;DHT22;1827;50.534;8.316;2023-04-25T05:46:23;6.40;1.00
3626;DHT22;1827;50.534;8.316;2023-04-25T05:49:12;6.80;1.00
3626;DHT22;1827;50.534;8.316;2023-04-25T05:51:53;7.30;1.00
3626;DHT22;1827;50.534;8.316;2023-04-25T05:54:43;7.60;1.00
3626;DHT22;1827;50.534;8.316;2023-04-25T05:57:08;7.90;1.00
3626;DHT22;1827;50.534;8.316;2023-04-25T05:59:43;7.80;1.00
3626;DHT22;1827;50.534;8.316;2023-04-25T06:02:09;8.00;1.00
3626;DHT22;1827;50.534;8.316;2023-04-25T06:04:37;7.90;1.00
3626;DHT22;1827;50.534;8.316;2023-04-25T06:07:03;7.80;1.00
3626;DHT22;1827;50.534;8.316;2023-04-25T06:09:28;8.00;1.00
3626;DHT22;1827;50.534;8.316;2023-04-25T06:11:54;7.80;1.00
3626;DHT22;1827;50.534;8.316;2023-04-25T06:14:20;8.20;1.00
3626;DHT22;1827;50.534;8.316;2023-04-25T06:16:48;8.60;1.00
3626;DHT22;1827;50.534;8.316;2023-04-25T06:19:14;8.80;1.00
3626;DHT22;1827;50.534;8.316;2023-04-25T06:21:41;9.00;1.00
3626;DHT22;1827;50.534;8.316;2023-04-25T06:24:07;8.70;1.00
3626;DHT22;1827;50.534;8.316;2023-04-25T06:26:33;8.80;1.00
3626;DHT22;1827;50.534;8.316;2023-04-25T06:28:59;8.80;1.00
3626;DHT22;1827;50.534;8.316;2023-04-25T06:31:25;8.80;1.00
3626;DHT22;1827;50.534;8.316;2023-04-25T06:33:51;8.80;1.00
3626;DHT22;1827;50.534;8.316;2023-04-25T06:36:23;8.90;1.00
3626;DHT22;1827;50.534;8.316;2023-04-25T06:38:53;9.10;1.00
3626;DHT22;1827;50.534;8.316;2023-04-25T06:41:18;9.00;1.00
3626;DHT22;1827;50.534;8.316;2023-04-25T06:43:45;9.10;1.00
3626;DHT22;1827;50.534;8.316;2023-04-25T06:46:23;8.70;1.00
3626;DHT22;1827;50.534;8.316;2023-04-25T06:48:49;8.60;1.00
3626;DHT22;1827;50.534;8.316;2023-04-25T06:51:16;8.70;1.00
3626;DHT22;1827;50.534;8.316;2023-04-25T06:53:43;8.50;1.00
3626;DHT22;1827;50.534;8.316;2023-04-25T06:56:16;8.70;1.00
3626;DHT22;1827;50.534;8.316;2023-04-25T06:58:55;8.70;1.00
3626;DHT22;1827;50.534;8.316;2023-04-25T07:01:27;8.60;1.00
3626;DHT22;1827;50.534;8.316;2023-04-25T07:03:53;8.70;1.00
3626;DHT22;1827;50.534;8.316;2023-04-25T07:06:19;9.00;1.00
3626;DHT22;1827;50.534;8.316;2023-04-25T07:08:45;8.80;1.00
3626;DHT22;1827;50.534;8.316;2023-04-25T07:11:12;8.90;1.00
3626;DHT22;1827;50.534;8.316;2023-04-25T07:13:37;8.90;1.00
3626;DHT22;1827;50.534;8.316;2023-04-25T07:16:03;9.00;1.00
3626;DHT22;1827;50.534;8.316;2023-04-25T07:18:31;9.10;1.00
3626;DHT22;1827;50.534;8.316;2023-04-25T07:20:58;9.20;1.00
3626;DHT22;1827;50.534;8.316;2023-04-25T07:23:23;8.70;1.00
3626;DHT22;1827;50.534;8.316;2023-04-25T07:25:49;8.90;1.00
3626;DHT22;1827;50.534;8.316;2023-04-25T07:28:20;8.80;1.00
3626;DHT22;1827;50.534;8.316;2023-04-25T07:30:46;8.80;1.00
3626;DHT22;1827;50.534;8.316;2023-04-25T07:33:12;8.90;1.00
3626;DHT22;1827;50.534;8.316;2023-04-25T07:35:39;8.80;1.00
3626;DHT22;1827;50.534;8.316;2023-04-25T07:38:05;8.70;1.00
3626;DHT22;1827;50.534;8.316;2023-04-25T07:40:32;8.90;1.00
3626;DHT22;1827;50.534;8.316;2023-04-25T07:43:04;9.10;1.00
3626;DHT22;1827;50.534;8.316;2023-04-25T07:45:40;9.20;1.00
3626;DHT22;1827;50.534;8.316;2023-04-25T07:48:06;9.60;1.00
3626;DHT22;1827;50.534;8.316;2023-04-25T07:50:35;10.40;1.00
3626;DHT22;1827;50.534;8.316;2023-04-25T07:53:01;10.60;1.00
3626;DHT22;1827;50.534;8.316;2023-04-25T07:55:33;10.60;1.00
3626;DHT22;1827;50.534;8.316;2023-04-25T07:58:13;10.70;99.90
3626;DHT22;1827;50.534;8.316;2023-04-25T08:00:42;10.60;99.90
3626;DHT22;1827;50.534;8.316;2023-04-25T08:03:45;10.30;99.90
3626;DHT22;1827;50.534;8.316;2023-04-25T08:06:26;10.30;99.90
3626;DHT22;1827;50.534;8.316;2023-04-25T08:09:06;10.50;99.90
3626;DHT22;1827;50.534;8.316;2023-04-25T08:11:37;10.70;99.90
3626;DHT22;1827;50.534;8.316;2023-04-25T08:14:06;10.70;99.90
3626;DHT22;1827;50.534;8.316;2023-04-25T08:16:33;10.90;99.90
3626;DHT22;1827;50.534;8.316;2023-04-25T08:19:00;11.40;99.90
3626;DHT22;1827;50.534;8.316;2023-04-25T08:21:26;11.40;99.90
3626;DHT22;1827;50.534;8.316;2023-04-25T08:23:54;11.70;99.90
3626;DHT22;1827;50.534;8.316;2023-04-25T08:26:25;12.10;99.90
3626;DHT22;1827;50.534;8.316;2023-04-25T08:28:51;12.00;99.90
3626;DHT22;1827;50.534;8.316;2023-04-25T08:31:17;12.20;99.90
3626;DHT22;1827;50.534;8.316;2023-04-25T08:33:53;11.90;99.90
3626;DHT22;1827;50.534;8.316;2023-04-25T08:36:31;12.10;99.90
3626;DHT22;1827;50.534;8.316;2023-04-25T08:38:58;11.90;99.90
3626;DHT22;1827;50.534;8.316;2023-04-25T08:41:24;11.30;99.90
3626;DHT22;1827;50.534;8.316;2023-04-25T08:43:51;10.90;99.90
3626;DHT22;1827;50.534;8.316;2023-04-25T08:46:18;10.40;99.90
3626;DHT22;1827;50.534;8.316;2023-04-25T08:49:07;9.50;99.90
3626;DHT22;1827;50.534;8.316;2023-04-25T08:51:44;8.60;99.90
3626;DHT22;1827;50.534;8.316;2023-04-25T08:54:12;8.80;99.90
3626;DHT22;1827;50.534;8.316;2023-04-25T08:56:39;9.00;99.90
3626;DHT22;1827;50.534;8.316;2023-04-25T08:59:06;8.80;99.90
3626;DHT22;1827;50.534;8.316;2023-04-25T09:01:35;8.70;99.90
3626;DHT22;1827;50.534;8.316;2023-04-25T09:04:01;8.50;99.90
3626;DHT22;1827;50.534;8.316;2023-04-25T09:06:29;8.70;99.90
3626;DHT22;1827;50.534;8.316;2023-04-25T09:09:05;9.00;99.90
3626;DHT22;1827;50.534;8.316;2023-04-25T09:11:36;9.30;99.90
3626;DHT22;1827;50.534;8.316;2023-04-25T09:14:12;9.40;99.90
3626;DHT22;1827;50.534;8.316;2023-04-25T09:17:03;9.90;99.90
3626;DHT22;1827;50.534;8.316;2023-04-25T09:19:51;10.00;99.90
3626;DHT22;1827;50.534;8.316;2023-04-25T09:22:22;10.50;99.90
3626;DHT22;1827;50.534;8.316;2023-04-25T09:24:48;10.70;99.90
3626;DHT22;1827;50.534;8.316;2023-04-25T09:27:21;10.70;99.90
3626;DHT22;1827;50.534;8.316;2023-04-25T09:29:58;11.20;99.90
3626;DHT22;1827;50.534;8.316;2023-04-25T09:32:37;11.40;99.90
3626;DHT22;1827;50.534;8.316;2023-04-25T09:35:04;10.30;99.90
3626;DHT22;1827;50.534;8.316;2023-04-25T09:37:30;10.60;99.90
3626;DHT22;1827;50.534;8.316;2023-04-25T09:40:20;9.50;99.90
3626;DHT22;1827;50.534;8.316;2023-04-25T09:43:29;9.90;99.90
3626;DHT22;1827;50.534;8.316;2023-04-25T09:45:55;10.80;99.90
3626;DHT22;1827;50.534;8.316;2023-04-25T09:48:26;11.40;99.90
3626;DHT22;1827;50.534;8.316;2023-04-25T09:51:11;11.50;99.90
3626;DHT22;1827;50.534;8.316;2023-04-25T09:53:45;11.40;99.90
3626;DHT22;1827;50.534;8.316;2023-04-25T09:56:43;11.50;99.90
3626;DHT22;1827;50.534;8.316;2023-04-25T09:59:13;11.30;99.90
3626;DHT22;1827;50.534;8.316;2023-04-25T10:01:40;10.90;99.90
3626;DHT22;1827;50.534;8.316;2023-04-25T10:04:12;11.00;99.90
3626;DHT22;1827;50.534;8.316;2023-04-25T10:07:00;10.50;99.90
3626;DHT22;1827;50.534;8.316;2023-04-25T10:09:26;10.50;99.90
3626;DHT22;1827;50.534;8.316;2023-04-25T10:11:56;10.60;99.90
3626;DHT22;1827;50.534;8.316;2023-04-25T10:14:22;11.00;99.90
3626;DHT22;1827;50.534;8.316;2023-04-25T10:16:49;10.60;99.90
3626;DHT22;1827;50.534;8.316;2023-04-25T10:19:15;10.30;99.90
3626;DHT22;1827;50.534;8.316;2023-04-25T10:21:50;10.30;99.90
3626;DHT22;1827;50.534;8.316;2023-04-25T10:24:16;9.70;99.90
3626;DHT22;1827;50.534;8.316;2023-04-25T10:26:42;10.20;99.90
3626;DHT22;1827;50.534;8.316;2023-04-25T10:29:09;11.40;99.90
3626;DHT22;1827;50.534;8.316;2023-04-25T10:31:45;12.20;99.90
3626;DHT22;1827;50.534;8.316;2023-04-25T10:34:11;12.80;99.90
3626;DHT22;1827;50.534;8.316;2023-04-25T10:36:36;13.40;99.90
3626;DHT22;1827;50.534;8.316;2023-04-25T10:39:06;12.90;99.90
3626;DHT22;1827;50.534;8.316;2023-04-25T10:41:56;12.90;99.90
3626;DHT22;1827;50.534;8.316;2023-04-25T10:44:22;12.60;99.90
3626;DHT22;1827;50.534;8.316;2023-04-25T10:46:48;11.80;99.90
3626;DHT22;1827;50.534;8.316;2023-04-25T10:49:34;11.70;99.90
3626;DHT22;1827;50.534;8.316;2023-04-25T10:54:48;11.00;99.90
3626;DHT22;1827;50.534;8.316;2023-04-25T11:00:17;10.80;99.90
3626;DHT22;1827;50.534;8.316;2023-04-25T11:03:02;10.60;99.90
3626;DHT22;1827;50.534;8.316;2023-04-25T11:05:39;10.50;99.90
3626;DHT22;1827;50.534;8.316;2023-04-25T11:08:11;10.60;99.90
3626;DHT22;1827;50.534;8.316;2023-04-25T11:10:37;10.40;99.90
3626;DHT22;1827;50.534;8.316;2023-04-25T11:13:05;10.30;99.90
3626;DHT22;1827;50.534;8.316;2023-04-25T11:15:31;10.10;99.90
3626;DHT22;1827;50.534;8.316;2023-04-25T11:17:56;10.30;99.90
3626;DHT22;1827;50.534;8.316;2023-04-25T11:20:25;10.70;99.90
3626;DHT22;1827;50.534;8.316;2023-04-25T11:22:51;10.70;99.90
3626;DHT22;1827;50.534;8.316;2023-04-25T11:25:17;11.00;99.90
3626;DHT22;1827;50.534;8.316;2023-04-25T11:27:53;11.20;99.90
3626;DHT22;1827;50.534;8.316;2023-04-25T11:30:20;11.10;99.90
3626;DHT22;1827;50.534;8.316;2023-04-25T11:32:46;11.30;99.90
3626;DHT22;1827;50.534;8.316;2023-04-25T11:35:13;12.00;99.90
3626;DHT22;1827;50.534;8.316;2023-04-25T11:37:39;12.80;99.90
3626;DHT22;1827;50.534;8.316;2023-04-25T11:40:06;13.70;99.90
3626;DHT22;1827;50.534;8.316;2023-04-25T11:42:32;14.00;99.90
3626;DHT22;1827;50.534;8.316;2023-04-25T11:44:59;13.20;99.90
3626;DHT22;1827;50.534;8.316;2023-04-25T11:47:30;12.70;99.90
3626;DHT22;1827;50.534;8.316;2023-04-25T11:49:57;12.40;99.90
3626;DHT22;1827;50.534;8.316;2023-04-25T11:52:22;12.00;99.90
3626;DHT22;1827;50.534;8.316;2023-04-25T11:54:48;11.80;99.90
3626;DHT22;1827;50.534;8.316;2023-04-25T11:57:14;11.90;99.90
3626;DHT22;1827;50.534;8.316;2023-04-25T11:59:39;11.60;99.90
3626;DHT22;1827;50.534;8.316;2023-04-25T12:02:05;11.90;99.90
3626;DHT22;1827;50.534;8.316;2023-04-25T12:04:32;11.80;99.90
3626;DHT22;1827;50.534;8.316;2023-04-25T12:06:58;11.40;99.90
3626;DHT22;1827;50.534;8.316;2023-04-25T12:09:33;11.90;99.90
3626;DHT22;1827;50.534;8.316;2023-04-25T12:12:00;12.00;99.90
3626;DHT22;1827;50.534;8.316;2023-04-25T12:14:31;12.40;99.90
3626;DHT22;1827;50.534;8.316;2023-04-25T12:17:02;12.60;99.90
3626;DHT22;1827;50.534;8.316;2023-04-25T12:19:34;13.40;99.90
3626;DHT22;1827;50.534;8.316;2023-04-25T12:22:10;14.00;99.90
3626;DHT22;1827;50.534;8.316;2023-04-25T12:24:44;13.60;99.90
3626;DHT22;1827;50.534;8.316;2023-04-25T12:27:10;14.00;99.90
3626;DHT22;1827;50.534;8.316;2023-04-25T12:29:53;14.60;99.90
3626;DHT22;1827;50.534;8.316;2023-04-25T12:32:20;15.10;99.90
3626;DHT22;1827;50.534;8.316;2023-04-25T12:34:45;15.60;99.90
3626;DHT22;1827;50.534;8.316;2023-04-25T12:37:11;15.10;99.90
3626;DHT22;1827;50.534;8.316;2023-04-25T12:39:37;14.20;99.90
3626;DHT22;1827;50.534;8.316;2023-04-25T12:42:03;13.80;99.90
3626;DHT22;1827;50.534;8.316;2023-04-25T12:44:29;13.40;99.90
3626;DHT22;1827;50.534;8.316;2023-04-25T12:46:55;14.00;99.90
3626;DHT22;1827;50.534;8.316;2023-04-25T12:49:20;13.90;99.90
3626;DHT22;1827;50.534;8.316;2023-04-25T12:51:46;13.50;99.90
3626;DHT22;1827;50.534;8.316;2023-04-25T12:54:12;13.30;99.90
3626;DHT22;1827;50.534;8.316;2023-04-25T12:56:40;13.70;99.90
3626;DHT22;1827;50.534;8.316;2023-04-25T12:59:07;14.50;99.90
3626;DHT22;1827;50.534;8.316;2023-04-25T13:01:33;14.80;99.90
3626;DHT22;1827;50.534;8.316;2023-04-25T13:03:58;14.80;99.90
3626;DHT22;1827;50.534;8.316;2023-04-25T13:06:24;14.50;99.90
3626;DHT22;1827;50.534;8.316;2023-04-25T13:08:51;14.00;99.90
3626;DHT22;1827;50.534;8.316;2023-04-25T13:11:17;13.30;99.90
3626;DHT22;1827;50.534;8.316;2023-04-25T13:13:44;12.80;99.90
3626;DHT22;1827;50.534;8.316;2023-04-25T13:16:10;12.40;99.90
3626;DHT22;1827;50.534;8.316;2023-04-25T13:18:36;12.30;99.90
3626;DHT22;1827;50.534;8.316;2023-04-25T13:21:02;12.10;99.90
3626;DHT22;1827;50.534;8.316;2023-04-25T13:23:29;11.90;99.90
3626;DHT22;1827;50.534;8.316;2023-04-25T13:25:55;11.40;99.90
3626;DHT22;1827;50.534;8.316;2023-04-25T13:28:26;11.10;99.90
3626;DHT22;1827;50.534;8.316;2023-04-25T13:30:52;11.30;99.90
3626;DHT22;1827;50.534;8.316;2023-04-25T13:33:18;11.40;99.90
3626;DHT22;1827;50.534;8.316;2023-04-25T13:35:44;12.00;99.90
3626;DHT22;1827;50.534;8.316;2023-04-25T13:38:20;12.30;99.90
3626;DHT22;1827;50.534;8.316;2023-04-25T13:40:46;12.60;99.90
3626;DHT22;1827;50.534;8.316;2023-04-25T13:43:11;12.50;99.90
3626;DHT22;1827;50.534;8.316;2023-04-25T13:45:37;12.50;99.90
3626;DHT22;1827;50.534;8.316;2023-04-25T13:48:03;12.70;99.90
3626;DHT22;1827;50.534;8.316;2023-04-25T13:50:28;12.80;99.90
3626;DHT22;1827;50.534;8.316;2023-04-25T13:52:54;13.00;99.90
3626;DHT22;1827;50.534;8.316;2023-04-25T13:55:20;12.80;99.90
3626;DHT22;1827;50.534;8.316;2023-04-25T13:57:45;12.90;99.90
3626;DHT22;1827;50.534;8.316;2023-04-25T14:00:12;12.50;99.90
3626;DHT22;1827;50.534;8.316;2023-04-25T14:02:38;12.20;99.90
3626;DHT22;1827;50.534;8.316;2023-04-25T14:05:04;12.20;99.90
3626;DHT22;1827;50.534;8.316;2023-04-25T14:07:30;12.20;99.90
3626;DHT22;1827;50.534;8.316;2023-04-25T14:09:56;12.30;99.90
3626;DHT22;1827;50.534;8.316;2023-04-25T14:12:25;12.10;99.90
3626;DHT22;1827;50.534;8.316;2023-04-25T14:14:51;11.90;99.90
3626;DHT22;1827;50.534;8.316;2023-04-25T14:17:18;11.90;99.90
3626;DHT22;1827;50.534;8.316;2023-04-25T14:19:44;11.90;99.90
3626;DHT22;1827;50.534;8.316;2023-04-25T14:22:13;12.10;99.90
3626;DHT22;1827;50.534;8.316;2023-04-25T14:24:40;12.30;99.90
3626;DHT22;1827;50.534;8.316;2023-04-25T14:27:05;12.30;99.90
3626;DHT22;1827;50.534;8.316;2023-04-25T14:29:31;12.50;99.90
3626;DHT22;1827;50.534;8.316;2023-04-25T14:31:57;12.40;99.90
3626;DHT22;1827;50.534;8.316;2023-04-25T14:34:25;12.80;99.90
3626;DHT22;1827;50.534;8.316;2023-04-25T14:36:51;13.20;99.90
3626;DHT22;1827;50.534;8.316;2023-04-25T14:39:18;13.20;99.90
3626;DHT22;1827;50.534;8.316;2023-04-25T14:41:44;12.60;99.90
3626;DHT22;1827;50.534;8.316;2023-04-25T14:44:10;11.50;99.90
3626;DHT22;1827;50.534;8.316;2023-04-25T14:46:36;11.60;99.90
3626;DHT22;1827;50.534;8.316;2023-04-25T14:49:02;11.40;99.90
3626;DHT22;1827;50.534;8.316;2023-04-25T14:51:28;11.30;99.90
3626;DHT22;1827;50.534;8.316;2023-04-25T14:53:55;11.40;99.90
3626;DHT22;1827;50.534;8.316;2023-04-25T14:56:21;11.40;99.90
3626;DHT22;1827;50.534;8.316;2023-04-25T14:58:47;11.40;99.90
3626;DHT22;1827;50.534;8.316;2023-04-25T15:01:13;11.30;99.90
3626;DHT22;1827;50.534;8.316;2023-04-25T15:03:40;11.30;99.90
3626;DHT22;1827;50.534;8.316;2023-04-25T15:06:06;11.40;99.90
3626;DHT22;1827;50.534;8.316;2023-04-25T15:08:32;11.30;99.90
3626;DHT22;1827;50.534;8.316;2023-04-25T15:11:00;11.00;99.90
3626;DHT22;1827;50.534;8.316;2023-04-25T15:13:27;11.00;99.90
3626;DHT22;1827;50.534;8.316;2023-04-25T15:15:53;10.90;99.90
3626;DHT22;1827;50.534;8.316;2023-04-25T15:18:22;10.80;99.90
3626;DHT22;1827;50.534;8.316;2023-04-25T15:20:50;10.70;99.90
3626;DHT22;1827;50.534;8.316;2023-04-25T15:23:17;10.70;99.90
3626;DHT22;1827;50.534;8.316;2023-04-25T15:25:43;10.90;99.90
3626;DHT22;1827;50.534;8.316;2023-04-25T15:28:09;11.00;99.90
3626;DHT22;1827;50.534;8.316;2023-04-25T15:30:35;11.10;99.90
3626;DHT22;1827;50.534;8.316;2023-04-25T15:33:01;11.40;99.90
3626;DHT22;1827;50.534;8.316;2023-04-25T15:35:27;11.40;99.90
3626;DHT22;1827;50.534;8.316;2023-04-25T15:37:53;11.50;99.90
3626;DHT22;1827;50.534;8.316;2023-04-25T15:40:18;11.20;99.90
3626;DHT22;1827;50.534;8.316;2023-04-25T15:42:45;11.20;99.90
3626;DHT22;1827;50.534;8.316;2023-04-25T15:45:19;11.20;99.90
3626;DHT22;1827;50.534;8.316;2023-04-25T15:47:45;10.60;99.90
3626;DHT22;1827;50.534;8.316;2023-04-25T15:50:11;10.20;99.90
3626;DHT22;1827;50.534;8.316;2023-04-25T15:52:37;10.10;99.90
3626;DHT22;1827;50.534;8.316;2023-04-25T15:55:04;10.00;99.90
3626;DHT22;1827;50.534;8.316;2023-04-25T15:57:32;10.20;99.90
3626;DHT22;1827;50.534;8.316;2023-04-25T15:59:58;10.20;99.90
3626;DHT22;1827;50.534;8.316;2023-04-25T16:02:24;10.40;99.90
3626;DHT22;1827;50.534;8.316;2023-04-25T16:04:50;10.50;99.90
3626;DHT22;1827;50.534;8.316;2023-04-25T16:07:16;10.70;99.90
3626;DHT22;1827;50.534;8.316;2023-04-25T16:09:41;10.50;99.90
3626;DHT22;1827;50.534;8.316;2023-04-25T16:12:09;10.80;99.90
3626;DHT22;1827;50.534;8.316;2023-04-25T16:14:35;11.20;99.90
3626;DHT22;1827;50.534;8.316;2023-04-25T16:17:01;11.40;99.90
3626;DHT22;1827;50.534;8.316;2023-04-25T16:19:26;11.60;99.90
3626;DHT22;1827;50.534;8.316;2023-04-25T16:21:53;11.60;99.90
3626;DHT22;1827;50.534;8.316;2023-04-25T16:24:18;11.60;99.90
3626;DHT22;1827;50.534;8.316;2023-04-25T16:26:44;11.40;99.90
3626;DHT22;1827;50.534;8.316;2023-04-25T16:29:11;11.20;99.90
3626;DHT22;1827;50.534;8.316;2023-04-25T16:31:39;10.70;99.90
3626;DHT22;1827;50.534;8.316;2023-04-25T16:34:07;10.10;99.90
3626;DHT22;1827;50.534;8.316;2023-04-25T16:36:33;9.90;99.90